Time;durP1;ratioP1;P1;durP2;ratioP2;P2;SDS_P1;SDS_P2;PMS_P1;PMS_P2;Temp;Humidity;BMP_temperature;BMP_pressure;BME280_temperature;BME280_humidity;BME280_pressure;Samples;Min_cycle;Max_cycle;Signal;HPM_P1;HPM_P2
2023/08/18 00:02:23;;;;;;;11.27;5.40;;;;;;;27.76;52.72;98882.78;4825980;29;20584;-82
2023/08/18 00:04:48;;;;;;;14.23;5.82;;;;;;;27.75;53.05;98891.91;4828155;29;20189;-82
2023/08/18 00:07:15;;;;;;;10.23;5.55;;;;;;;27.76;52.99;98890.84;4844392;29;20264;-82
2023/08/18 00:09:43;;;;;;;8.77;4.47;;;;;;;27.71;52.82;98886.06;4828181;29;20185;-82
2023/08/18 00:12:11;;;;;;;9.50;4.60;;;;;;;27.69;52.94;98889.97;4844305;29;20192;-82
2023/08/18 00:14:37;;;;;;;8.47;4.03;;;;;;;27.68;53.24;98891.00;4827912;29;20181;-82
2023/08/18 00:17:04;;;;;;;9.80;4.73;;;;;;;27.68;53.29;98896.38;4844285;29;20253;-82
2023/08/18 00:19:30;;;;;;;8.38;4.25;;;;;;;27.69;53.56;98895.38;4844525;29;20184;-82
2023/08/18 00:21:56;;;;;;;10.03;4.33;;;;;;;27.69;53.73;98903.44;4844182;29;20173;-82
2023/08/18 00:24:22;;;;;;;5.43;4.10;;;;;;;27.71;54.03;98902.22;4844002;29;20224;-82
2023/08/18 00:26:47;;;;;;;14.77;5.80;;;;;;;27.70;54.20;98897.84;4843734;29;20579;-82
2023/08/18 00:29:14;;;;;;;9.70;4.68;;;;;;;27.69;53.81;98896.22;4844061;29;20640;-82
2023/08/18 00:31:41;;;;;;;8.73;3.97;;;;;;;27.70;54.57;98899.75;4844060;29;20288;-82
2023/08/18 00:34:06;;;;;;;7.80;4.17;;;;;;;27.65;54.72;98904.84;4844322;29;20349;-83
2023/08/18 00:36:34;;;;;;;7.77;3.97;;;;;;;27.59;54.68;98892.19;4843960;29;20196;-83
2023/08/18 00:39:03;;;;;;;15.00;3.80;;;;;;;27.54;55.13;98900.00;4843904;29;20177;-82
2023/08/18 00:41:30;;;;;;;7.13;4.47;;;;;;;27.53;55.18;98895.66;4843957;29;20185;-82
2023/08/18 00:43:57;;;;;;;12.53;4.27;;;;;;;27.51;55.61;98895.00;4809527;29;20185;-82
2023/08/18 00:46:24;;;;;;;6.17;4.27;;;;;;;27.46;55.98;98895.59;4841599;29;20643;-82
2023/08/18 00:48:51;;;;;;;8.10;4.70;;;;;;;27.41;55.84;98898.84;4843946;29;20204;-82
2023/08/18 00:51:17;;;;;;;8.40;4.40;;;;;;;27.38;55.81;98896.50;4827600;29;20188;-82
2023/08/18 00:53:44;;;;;;;7.73;4.17;;;;;;;27.34;55.91;98889.84;4843569;29;20205;-82
2023/08/18 00:56:11;;;;;;;9.90;5.00;;;;;;;27.31;56.08;98894.78;4843478;29;20547;-82
2023/08/18 00:58:36;;;;;;;9.10;4.37;;;;;;;27.31;56.20;98887.56;4843554;29;20268;-82
2023/08/18 01:01:03;;;;;;;7.90;4.27;;;;;;;27.31;55.91;98890.25;4843472;29;20671;-82
2023/08/18 01:03:30;;;;;;;11.23;5.13;;;;;;;27.26;56.09;98891.84;4843497;29;20177;-82
2023/08/18 01:05:58;;;;;;;12.97;4.07;;;;;;;27.23;55.76;98892.22;4827345;29;20194;-82
2023/08/18 01:08:25;;;;;;;7.20;4.20;;;;;;;27.22;55.93;98893.25;4843397;29;20268;-82
2023/08/18 01:11:10;;;;;;;7.37;4.20;;;;;;;27.26;55.79;98889.16;4843353;29;20174;-82
2023/08/18 01:13:57;;;;;;;11.13;4.00;;;;;;;27.26;55.59;98884.59;4842903;29;20189;-82
2023/08/18 01:16:28;;;;;;;9.27;4.23;;;;;;;27.27;55.34;98878.22;4827044;29;20189;-82
2023/08/18 01:18:54;;;;;;;8.33;3.97;;;;;;;27.29;55.39;98889.59;4827191;29;20546;-82
2023/08/18 01:21:26;;;;;;;7.57;3.70;;;;;;;27.27;55.50;98880.91;4843214;29;20677;-82
2023/08/18 01:23:52;;;;;;;8.90;4.23;;;;;;;27.26;55.47;98892.69;4843050;29;20161;-82
2023/08/18 01:26:17;;;;;;;6.83;3.77;;;;;;;27.25;55.28;98885.63;4842846;29;20189;-82
2023/08/18 01:28:43;;;;;;;6.23;4.00;;;;;;;27.23;55.27;98890.38;4843022;29;20216;-82
2023/08/18 01:31:22;;;;;;;8.13;4.10;;;;;;;27.20;55.51;98896.13;4843100;29;20223;-82
2023/08/18 01:34:01;;;;;;;6.90;4.17;;;;;;;27.19;55.82;98889.09;4843103;29;20655;-82
2023/08/18 01:36:39;;;;;;;6.87;3.53;;;;;;;27.17;55.66;98893.84;4843349;29;20173;-82
2023/08/18 01:39:08;;;;;;;6.97;4.27;;;;;;;27.18;55.28;98894.66;4811252;29;20193;-82
2023/08/18 01:41:35;;;;;;;6.40;3.43;;;;;;;27.14;55.57;98893.38;4824810;29;20234;-82
2023/08/18 01:44:01;;;;;;;7.57;4.53;;;;;;;27.13;55.30;98895.25;4824711;29;20184;-83
2023/08/18 01:46:26;;;;;;;7.53;4.00;;;;;;;27.07;55.50;98889.81;4824723;29;20260;-82
2023/08/18 01:48:52;;;;;;;8.70;4.37;;;;;;;27.08;55.29;98889.59;4840499;29;20189;-82
2023/08/18 01:51:18;;;;;;;9.00;4.33;;;;;;;27.07;54.85;98887.94;4826682;29;20264;-82
2023/08/18 01:53:45;;;;;;;6.53;3.67;;;;;;;27.01;55.16;98888.72;4824295;29;20213;-82
2023/08/18 01:56:10;;;;;;;6.60;3.57;;;;;;;27.03;55.00;98886.66;4833766;29;20188;-82
2023/08/18 01:58:37;;;;;;;10.10;4.00;;;;;;;27.07;55.05;98887.94;4842568;29;20177;-82
2023/08/18 02:01:02;;;;;;;5.83;3.73;;;;;;;27.09;54.39;98891.28;4826390;29;20188;-82
2023/08/18 02:03:29;;;;;;;6.33;3.57;;;;;;;27.10;54.47;98887.53;4826558;29;20196;-82
2023/08/18 02:05:59;;;;;;;7.07;3.43;;;;;;;27.10;54.06;98892.94;4842807;29;20177;-82
2023/08/18 02:08:25;;;;;;;8.50;4.60;;;;;;;27.07;53.97;98879.84;4842450;29;20188;-82
2023/08/18 02:10:52;;;;;;;8.00;3.40;;;;;;;27.06;53.70;98880.06;4842651;29;20679;-82
2023/08/18 02:13:18;;;;;;;6.17;3.43;;;;;;;27.04;53.35;98884.81;4826225;29;20307;-82
2023/08/18 02:15:45;;;;;;;5.90;3.50;;;;;;;27.03;53.28;98886.66;4842469;29;20546;-82
2023/08/18 02:18:11;;;;;;;5.73;3.57;;;;;;;27.05;53.47;98881.91;4841125;29;20192;-82
2023/08/18 02:20:38;;;;;;;5.93;3.63;;;;;;;26.98;53.05;98872.94;4839608;29;20185;-83
2023/08/18 02:23:05;;;;;;;9.07;3.60;;;;;;;27.02;53.21;98882.28;4840116;29;20180;-83
2023/08/18 02:25:30;;;;;;;8.05;3.53;;;;;;;26.97;53.30;98882.03;4844010;29;20710;-83
2023/08/18 02:27:57;;;;;;;5.00;3.07;;;;;;;26.93;52.91;98878.06;4846494;29;20322;-83
2023/08/18 02:30:22;;;;;;;5.47;3.63;;;;;;;26.86;53.57;98884.41;4846071;29;20257;-83
2023/08/18 02:32:49;;;;;;;10.73;4.87;;;;;;;26.80;53.78;98883.31;4846321;29;20205;-83
2023/08/18 02:35:14;;;;;;;6.80;3.63;;;;;;;26.71;54.03;98877.16;4846056;29;20188;-83
2023/08/18 02:37:41;;;;;;;7.30;3.27;;;;;;;26.68;54.12;98877.53;4829784;29;20181;-83
2023/08/18 02:40:08;;;;;;;10.07;3.72;;;;;;;26.75;53.50;98869.56;4845607;29;20181;-84
2023/08/18 02:42:35;;;;;;;10.00;3.90;;;;;;;26.80;52.95;98880.59;4829705;29;20241;-83
2023/08/18 02:45:02;;;;;;;8.05;3.38;;;;;;;26.71;53.34;98879.84;4846173;29;20211;-84
2023/08/18 02:47:29;;;;;;;7.27;3.67;;;;;;;26.66;53.50;98881.44;4845841;29;20187;-83
2023/08/18 02:49:56;;;;;;;7.07;4.00;;;;;;;26.74;53.13;98881.31;4827652;29;20193;-83
2023/08/18 02:52:22;;;;;;;7.73;3.97;;;;;;;26.78;52.27;98875.41;4844699;29;20181;-84
2023/08/18 02:54:48;;;;;;;4.20;2.90;;;;;;;26.77;52.06;98870.22;4845430;29;20181;-84
2023/08/18 02:57:14;;;;;;;10.60;3.60;;;;;;;26.78;52.13;98877.28;4828774;29;20664;-84
2023/08/18 02:59:41;;;;;;;7.30;3.50;;;;;;;26.78;52.23;98875.41;4828785;29;20192;-83
2023/08/18 03:02:07;;;;;;;8.87;3.77;;;;;;;26.75;51.93;98874.94;4834964;29;20246;-83
2023/08/18 03:04:33;;;;;;;5.30;3.07;;;;;;;26.73;51.98;98874.28;4843648;29;20189;-83
2023/08/18 03:06:59;;;;;;;6.77;3.70;;;;;;;26.72;51.90;98875.31;4844998;29;20275;-84
2023/08/18 03:09:25;;;;;;;12.37;3.13;;;;;;;26.73;52.07;98869.72;4833068;29;20200;-83
2023/08/18 03:11:51;;;;;;;8.03;3.30;;;;;;;26.73;51.79;98882.34;4843109;29;20219;-83
2023/08/18 03:14:17;;;;;;;5.53;3.50;;;;;;;26.66;51.93;98878.75;4834862;29;20571;-83
2023/08/18 03:16:43;;;;;;;5.03;3.33;;;;;;;26.59;52.25;98880.53;4828540;29;20173;-83
2023/08/18 03:19:09;;;;;;;11.17;4.50;;;;;;;26.40;52.97;98889.16;4828778;29;20272;-83
2023/08/18 03:21:36;;;;;;;9.77;4.53;;;;;;;26.38;52.90;98885.84;4842777;29;20224;-84
2023/08/18 03:24:01;;;;;;;8.37;4.83;;;;;;;26.35;53.25;98888.91;4845252;29;20174;-83
2023/08/18 03:26:27;;;;;;;8.80;5.27;;;;;;;26.29;53.17;98886.94;4845099;29;20572;-83
2023/08/18 03:28:56;;;;;;;8.00;4.50;;;;;;;26.26;53.42;98892.72;4845650;29;20200;-83
2023/08/18 03:31:21;;;;;;;5.97;3.30;;;;;;;26.28;53.35;98896.88;4844985;29;20716;-83
2023/08/18 03:33:48;;;;;;;4.83;2.73;;;;;;;26.35;52.72;98896.97;4834115;29;20294;-83
2023/08/18 03:36:15;;;;;;;8.18;3.20;;;;;;;26.39;52.48;98888.34;4840649;29;20682;-83
2023/08/18 03:38:41;;;;;;;9.63;3.57;;;;;;;26.38;52.37;98902.81;4826958;29;20214;-84
2023/08/18 03:41:07;;;;;;;5.93;3.00;;;;;;;26.42;51.74;98897.88;4826530;29;20213;-83
2023/08/18 03:43:35;;;;;;;4.40;3.00;;;;;;;26.41;51.68;98901.59;4828079;29;20217;-83
2023/08/18 03:46:22;;;;;;;5.13;3.30;;;;;;;26.44;51.71;98902.03;4844967;29;20246;-83
2023/08/18 03:48:49;;;;;;;6.27;3.60;;;;;;;26.44;51.30;98899.34;4845271;29;20249;-83
2023/08/18 03:51:16;;;;;;;4.67;2.80;;;;;;;26.45;51.68;98898.34;4844801;29;20276;-83
2023/08/18 03:53:43;;;;;;;5.30;3.40;;;;;;;26.48;52.00;98905.19;4844446;29;20787;-83
2023/08/18 03:56:09;;;;;;;4.80;3.10;;;;;;;26.48;51.54;98899.81;4828490;29;20200;-84
2023/08/18 03:58:36;;;;;;;5.30;3.67;;;;;;;26.44;51.94;98895.84;4845147;29;20177;-84
2023/08/18 04:01:08;;;;;;;9.07;3.37;;;;;;;26.46;52.00;98899.19;4839542;29;20194;-84
2023/08/18 04:03:36;;;;;;;6.93;2.67;;;;;;;26.44;51.74;98903.91;4810305;29;20274;-84
2023/08/18 04:06:03;;;;;;;5.07;3.17;;;;;;;26.40;51.94;98899.91;4820886;29;20193;-83
2023/08/18 04:08:32;;;;;;;6.50;3.50;;;;;;;26.38;52.15;98892.06;4828256;29;20185;-83
2023/08/18 04:10:57;;;;;;;7.20;3.43;;;;;;;26.34;52.09;98896.13;4842970;29;20182;-83
2023/08/18 04:13:24;;;;;;;5.97;3.40;;;;;;;26.37;52.19;98903.81;4829004;29;20225;-84
2023/08/18 04:15:50;;;;;;;5.30;3.27;;;;;;;26.31;52.46;98898.38;4809919;29;20338;-84
2023/08/18 04:18:18;;;;;;;6.30;3.30;;;;;;;26.26;52.04;98898.91;4842574;29;20181;-83
2023/08/18 04:20:44;;;;;;;7.60;3.23;;;;;;;26.20;52.46;98905.84;4828066;29;20178;-84
2023/08/18 04:23:11;;;;;;;5.40;3.30;;;;;;;26.20;52.76;98905.84;4843039;29;20236;-84
2023/08/18 04:25:38;;;;;;;6.10;3.40;;;;;;;26.19;52.97;98901.50;4827689;29;20555;-84
2023/08/18 04:28:04;;;;;;;8.40;3.50;;;;;;;26.17;52.77;98908.94;4844049;29;20197;-84
2023/08/18 04:30:31;;;;;;;4.60;3.43;;;;;;;26.19;52.79;98898.81;4842755;29;20196;-84
2023/08/18 04:32:57;;;;;;;5.13;3.00;;;;;;;26.23;52.56;98899.31;4844361;29;20201;-84
2023/08/18 04:35:24;;;;;;;5.73;3.43;;;;;;;26.28;52.40;98901.44;4844048;29;20627;-84
2023/08/18 04:37:50;;;;;;;6.03;3.83;;;;;;;26.29;52.55;98903.06;4843934;29;20647;-84
2023/08/18 04:40:17;;;;;;;6.57;2.70;;;;;;;26.36;52.48;98904.03;4843782;29;20197;-84
2023/08/18 04:42:44;;;;;;;6.60;3.40;;;;;;;26.41;52.06;98905.13;4843853;29;20166;-84
2023/08/18 04:45:10;;;;;;;7.57;3.60;;;;;;;26.39;51.78;98900.97;4843868;29;20220;-84
2023/08/18 04:47:37;;;;;;;6.63;3.10;;;;;;;26.42;51.98;98905.94;4827541;29;20191;-83
2023/08/18 04:50:05;;;;;;;5.93;2.87;;;;;;;26.48;51.84;98903.34;4842597;29;20659;-84
2023/08/18 04:52:31;;;;;;;6.67;2.87;;;;;;;26.53;51.96;98900.94;4843850;29;20174;-84
2023/08/18 04:54:58;;;;;;;4.13;2.47;;;;;;;26.64;51.52;98900.47;4827523;29;20217;-84
2023/08/18 04:57:25;;;;;;;7.13;2.97;;;;;;;26.72;50.98;98894.13;4835908;29;20554;-84
2023/08/18 04:59:52;;;;;;;5.70;3.37;;;;;;;26.81;50.68;98903.78;4827614;29;20268;-84
2023/08/18 05:02:18;;;;;;;10.60;3.10;;;;;;;26.99;50.17;98908.75;4825322;29;20205;-83
2023/08/18 05:04:45;;;;;;;6.30;3.30;;;;;;;27.01;50.18;98902.16;4842041;29;20200;-83
2023/08/18 05:07:12;;;;;;;5.67;2.87;;;;;;;27.06;49.60;98905.09;4843651;29;20191;-84
2023/08/18 05:09:39;;;;;;;6.97;3.63;;;;;;;27.20;49.65;98904.19;4827211;29;20595;-84
2023/08/18 05:12:11;;;;;;;6.93;2.90;;;;;;;27.38;49.00;98907.28;4827295;29;20189;-84
2023/08/18 05:14:38;;;;;;;5.60;3.00;;;;;;;27.43;49.96;98904.91;4843032;29;20614;-84
2023/08/18 05:17:04;;;;;;;4.43;2.83;;;;;;;27.63;49.07;98898.81;4833261;29;20705;-83
2023/08/18 05:19:30;;;;;;;11.60;3.27;;;;;;;27.84;48.31;98898.78;4809312;29;20229;-84
2023/08/18 05:21:55;;;;;;;5.93;3.00;;;;;;;27.85;48.91;98903.16;4839115;29;20216;-83
2023/08/18 05:24:21;;;;;;;4.72;2.63;;;;;;;28.06;48.72;98902.31;4842311;29;20260;-83
2023/08/18 05:26:46;;;;;;;4.25;2.40;;;;;;;28.20;47.63;98907.56;4826377;29;20201;-84
2023/08/18 05:29:11;;;;;;;4.60;2.70;;;;;;;28.27;46.89;98907.63;4826290;29;20344;-84
2023/08/18 05:31:37;;;;;;;6.70;2.65;;;;;;;28.20;47.96;98904.88;4842240;29;20185;-83
2023/08/18 05:34:03;;;;;;;5.13;2.85;;;;;;;28.34;47.14;98903.94;4842897;29;20228;-84
2023/08/18 05:36:31;;;;;;;5.45;2.65;;;;;;;28.46;47.15;98906.88;4826293;29;20201;-84
2023/08/18 05:38:56;;;;;;;5.00;3.75;;;;;;;28.61;46.35;98904.88;4824850;29;20547;-83
2023/08/18 05:41:22;;;;;;;7.18;2.75;;;;;;;28.37;46.44;98903.53;4824871;29;20192;-84
2023/08/18 05:43:47;;;;;;;7.45;3.13;;;;;;;28.23;47.06;98906.34;4840117;29;20734;-86
2023/08/18 05:46:13;;;;;;;6.00;2.83;;;;;;;28.26;47.53;98900.56;4811110;29;20664;-85
2023/08/18 05:48:38;;;;;;;5.77;3.03;;;;;;;28.29;47.43;98901.00;4827457;29;20196;-84
2023/08/18 05:51:03;;;;;;;7.35;2.60;;;;;;;28.46;47.55;98910.41;4827028;29;20836;-84
2023/08/18 05:53:32;;;;;;;4.80;2.95;;;;;;;28.71;47.46;98901.84;4824795;29;20208;-84
2023/08/18 05:55:58;;;;;;;6.38;3.17;;;;;;;28.91;46.40;98900.88;4832377;29;20188;-84
2023/08/18 05:58:23;;;;;;;5.03;2.60;;;;;;;29.04;45.16;98910.88;4842734;29;20184;-84
2023/08/18 06:00:49;;;;;;;3.58;2.40;;;;;;;29.13;44.96;98909.66;4832392;29;20639;-84
2023/08/18 06:03:15;;;;;;;5.47;3.00;;;;;;;29.08;44.96;98907.56;4830010;29;20281;-85
2023/08/18 06:05:41;;;;;;;8.30;3.38;;;;;;;29.14;45.05;98914.84;4835346;29;20271;-84
2023/08/18 06:08:06;;;;;;;6.25;2.90;;;;;;;29.09;45.47;98909.22;4842295;29;20185;-85
2023/08/18 06:10:31;;;;;;;4.40;2.80;;;;;;;29.37;44.92;98911.81;4843000;29;20181;-85
2023/08/18 06:12:57;;;;;;;4.88;2.60;;;;;;;29.49;45.44;98907.44;4825185;29;20229;-85
2023/08/18 06:15:23;;;;;;;4.43;2.70;;;;;;;29.47;44.62;98909.53;4842426;29;20177;-84
2023/08/18 06:17:49;;;;;;;4.10;2.42;;;;;;;29.43;44.19;98905.56;4824651;29;20217;-85
2023/08/18 06:20:14;;;;;;;7.82;2.72;;;;;;;29.59;44.07;98910.56;4836456;29;20668;-86
2023/08/18 06:22:40;;;;;;;5.28;2.50;;;;;;;29.76;43.86;98906.44;4838836;29;20608;-85
2023/08/18 06:25:09;;;;;;;4.70;2.70;;;;;;;29.93;42.95;98909.56;4833300;29;20208;-85
2023/08/18 06:27:35;;;;;;;5.28;2.30;;;;;;;30.11;42.64;98919.75;4842232;29;20185;-85
2023/08/18 06:30:01;;;;;;;6.65;2.30;;;;;;;30.43;42.38;98916.13;4842263;29;20559;-84
2023/08/18 06:32:26;;;;;;;7.05;3.30;;;;;;;30.50;41.03;98916.13;4822452;29;20289;-86
2023/08/18 06:34:52;;;;;;;3.97;2.50;;;;;;;30.71;40.92;98913.97;4835997;29;20189;-85
2023/08/18 06:37:20;;;;;;;6.80;2.65;;;;;;;30.94;40.84;98919.72;4823020;29;20655;-86
2023/08/18 06:39:46;;;;;;;5.85;2.30;;;;;;;30.96;40.47;98912.22;4833366;29;20257;-85
2023/08/18 06:42:13;;;;;;;5.93;2.67;;;;;;;31.16;40.52;98919.41;4841388;29;20209;-85
2023/08/18 06:44:38;;;;;;;5.15;2.53;;;;;;;31.29;39.41;98908.50;4838247;29;20252;-86
2023/08/18 06:47:04;;;;;;;7.50;2.35;;;;;;;31.29;39.50;98913.91;4836292;29;20655;-85
2023/08/18 06:49:29;;;;;;;3.83;2.10;;;;;;;31.37;39.68;98913.63;4830400;29;20673;-85
2023/08/18 06:51:55;;;;;;;5.10;2.10;;;;;;;31.49;39.15;98909.22;4838443;29;20196;-86
2023/08/18 06:54:20;;;;;;;8.18;2.45;;;;;;;31.70;38.62;98905.28;4819169;29;20213;-86
2023/08/18 06:56:46;;;;;;;7.85;2.50;;;;;;;31.77;38.28;98912.31;4831395;29;20177;-86
2023/08/18 06:59:12;;;;;;;4.03;2.33;;;;;;;31.92;37.99;98915.50;4814189;29;20177;-86
2023/08/18 07:01:39;;;;;;;3.95;2.42;;;;;;;32.03;37.88;98911.25;4824901;29;20250;-86
2023/08/18 07:04:04;;;;;;;4.93;2.75;;;;;;;31.81;37.36;98910.00;4835717;29;20197;-87
2023/08/18 07:06:31;;;;;;;5.38;2.40;;;;;;;32.02;38.18;98909.63;4830885;29;20712;-86
2023/08/18 07:08:56;;;;;;;4.13;2.40;;;;;;;32.14;36.69;98911.38;4841859;29;20193;-88
2023/08/18 07:11:22;;;;;;;8.38;2.20;;;;;;;32.17;36.88;98919.06;4824858;29;20249;-86
2023/08/18 07:13:47;;;;;;;5.68;2.88;;;;;;;32.33;37.42;98923.06;4821657;29;20244;-87
2023/08/18 07:16:13;;;;;;;5.82;3.33;;;;;;;32.49;35.91;98921.66;4825045;29;20193;-87
2023/08/18 07:18:38;;;;;;;5.97;3.17;;;;;;;32.42;36.85;98926.28;4827323;29;20212;-87
2023/08/18 07:21:03;;;;;;;13.40;3.92;;;;;;;32.42;36.67;98920.88;4844541;29;20192;-87
2023/08/18 07:23:29;;;;;;;8.70;3.30;;;;;;;32.34;36.31;98918.47;4845213;29;20348;-87
2023/08/18 07:25:55;;;;;;;5.53;2.55;;;;;;;32.22;36.11;98916.50;4845371;29;20200;-86
2023/08/18 07:28:21;;;;;;;5.80;2.60;;;;;;;31.97;37.06;98928.41;4845229;29;20173;-87
2023/08/18 07:30:46;;;;;;;9.27;4.22;;;;;;;32.02;37.26;98917.75;4845060;29;20683;-88
2023/08/18 07:33:12;;;;;;;11.57;3.13;;;;;;;31.95;37.26;98920.47;4828838;29;20216;-88
2023/08/18 07:35:38;;;;;;;9.27;3.10;;;;;;;32.05;37.47;98928.16;4828436;29;20862;-87
2023/08/18 07:38:03;;;;;;;9.05;3.33;;;;;;;32.04;37.49;98931.91;4826827;29;20241;-87
2023/08/18 07:40:29;;;;;;;4.30;2.50;;;;;;;32.12;36.95;98931.63;4826710;29;20193;-86
2023/08/18 07:42:55;;;;;;;5.40;2.83;;;;;;;32.29;37.59;98934.56;4827140;29;20248;-86
2023/08/18 07:45:21;;;;;;;4.88;2.65;;;;;;;32.35;37.19;98925.56;4826790;29;20228;-87
2023/08/18 07:47:47;;;;;;;5.20;3.13;;;;;;;32.32;36.28;98926.81;4843333;29;20829;-88
2023/08/18 07:50:13;;;;;;;4.43;2.80;;;;;;;32.20;37.07;98921.34;4843150;29;20185;-89
2023/08/18 07:52:40;;;;;;;5.18;2.83;;;;;;;32.13;37.12;98917.84;4844317;29;20189;-88
2023/08/18 07:55:07;;;;;;;8.25;3.10;;;;;;;32.11;36.79;98933.50;4845127;29;20667;-87
2023/08/18 07:57:34;;;;;;;6.22;2.78;;;;;;;32.02;37.39;98926.69;4844757;29;20173;-87
2023/08/18 08:00:07;;;;;;;4.10;2.80;;;;;;;31.88;38.02;98936.00;4828378;29;20551;-82
2023/08/18 08:02:35;;;;;;;5.88;2.95;;;;;;;31.94;38.17;98929.69;4840347;29;20196;-83
2023/08/18 08:05:05;;;;;;;6.97;2.53;;;;;;;32.08;39.66;98931.25;4839283;29;20195;-84
2023/08/18 08:07:33;;;;;;;5.88;2.45;;;;;;;32.09;38.49;98916.63;4844366;29;20200;-84
2023/08/18 08:10:03;;;;;;;5.68;2.72;;;;;;;32.09;39.18;98910.38;4843670;29;20185;-84
2023/08/18 08:12:31;;;;;;;8.52;3.88;;;;;;;32.08;38.57;98904.13;4841629;29;20193;-86
2023/08/18 08:14:57;;;;;;;3.85;2.55;;;;;;;32.00;38.27;98907.13;4826743;29;20559;-84
2023/08/18 08:17:23;;;;;;;5.88;2.90;;;;;;;32.14;38.49;98902.41;4843612;29;20740;-83
2023/08/18 08:19:49;;;;;;;5.05;2.83;;;;;;;32.30;39.05;98899.09;4843329;29;20189;-83
2023/08/18 08:22:16;;;;;;;7.60;2.75;;;;;;;32.50;37.77;98898.88;4843953;29;20198;-83
2023/08/18 08:24:42;;;;;;;6.32;2.55;;;;;;;32.46;37.41;98889.53;4843975;29;20632;-83
2023/08/18 08:27:07;;;;;;;5.95;3.15;;;;;;;32.33;37.44;98889.69;4843860;29;20701;-83
2023/08/18 08:29:33;;;;;;;6.45;2.55;;;;;;;32.47;38.01;98894.72;4842286;29;20173;-83
2023/08/18 08:31:58;;;;;;;5.85;2.75;;;;;;;32.74;38.32;98892.53;4842112;29;20557;-83
2023/08/18 08:34:24;;;;;;;5.07;2.70;;;;;;;32.86;37.98;98900.75;4841993;29;20201;-84
2023/08/18 08:36:49;;;;;;;6.00;2.25;;;;;;;33.27;36.75;98892.69;4825777;29;20181;-85
2023/08/18 08:39:15;;;;;;;5.93;2.55;;;;;;;33.69;35.17;98896.22;4842426;29;20184;-85
2023/08/18 08:41:40;;;;;;;5.88;2.55;;;;;;;34.05;36.25;98906.88;4826171;29;20276;-85
2023/08/18 08:44:06;;;;;;;3.95;2.40;;;;;;;34.37;34.97;98893.75;4827051;29;20185;-85
2023/08/18 08:46:33;;;;;;;5.38;2.67;;;;;;;34.41;34.06;98890.31;4844143;29;20192;-85
2023/08/18 08:49:03;;;;;;;8.50;2.83;;;;;;;34.50;34.42;98886.16;4827765;29;20196;-85
2023/08/18 08:51:33;;;;;;;7.25;3.55;;;;;;;34.76;33.87;98890.25;4844113;29;20176;-85
2023/08/18 08:54:01;;;;;;;4.88;2.72;;;;;;;34.87;33.43;98875.78;4843742;29;20201;-85
2023/08/18 08:56:31;;;;;;;9.43;3.10;;;;;;;35.00;33.94;98871.91;4842804;29;20643;-85
2023/08/18 08:58:56;;;;;;;6.18;2.50;;;;;;;34.98;33.95;98874.91;4842876;29;20181;-85
2023/08/18 09:01:23;;;;;;;9.25;2.80;;;;;;;35.12;32.61;98886.34;4839095;29;20595;-86
2023/08/18 09:03:50;;;;;;;10.57;2.53;;;;;;;35.21;32.86;98878.59;4841703;29;20530;-86
2023/08/18 09:06:16;;;;;;;5.85;2.72;;;;;;;35.43;32.29;98883.06;4836585;29;20186;-86
2023/08/18 09:08:43;;;;;;;5.55;2.33;;;;;;;35.14;32.17;98881.50;4841824;29;20200;-87
2023/08/18 09:11:10;;;;;;;6.40;2.20;;;;;;;35.23;33.69;98877.28;4841183;29;20276;-85
2023/08/18 09:13:37;;;;;;;8.02;2.55;;;;;;;35.60;32.34;98885.84;4838963;29;20216;-86
2023/08/18 09:16:06;;;;;;;6.47;2.90;;;;;;;35.57;32.12;98886.34;4839204;29;20197;-87
2023/08/18 09:18:33;;;;;;;7.13;2.60;;;;;;;35.88;31.64;98879.50;4839312;29;20193;-87
2023/08/18 09:21:04;;;;;;;4.93;2.45;;;;;;;35.96;31.89;98879.03;4842598;29;20189;-86
2023/08/18 09:23:31;;;;;;;5.45;1.95;;;;;;;36.26;32.22;98874.06;4842694;29;20185;-86
2023/08/18 09:25:58;;;;;;;3.75;2.00;;;;;;;36.46;31.61;98865.31;4842424;29;20250;-85
2023/08/18 09:29:08;;;;;;;4.20;2.20;;;;;;;36.68;31.02;98864.28;4842714;29;20181;-86
2023/08/18 09:31:35;;;;;;;9.73;2.58;;;;;;;36.83;31.21;98871.81;4838753;29;20649;-85
2023/08/18 09:34:02;;;;;;;5.35;2.75;;;;;;;37.07;29.62;98861.44;4860699;29;20200;-85
2023/08/18 09:36:31;;;;;;;5.07;2.00;;;;;;;36.85;30.96;98854.06;4837177;29;20181;-85
2023/08/18 09:39:02;;;;;;;6.10;3.03;;;;;;;36.67;30.59;98857.16;4826423;29;20369;-86
2023/08/18 09:41:31;;;;;;;6.22;2.72;;;;;;;37.01;30.74;98852.34;4838819;29;20546;-84
2023/08/18 09:43:58;;;;;;;8.50;2.35;;;;;;;37.22;30.46;98853.38;4842432;29;20288;-84
2023/08/18 09:46:28;;;;;;;5.68;2.70;;;;;;;37.01;30.86;98843.31;4842147;29;20200;-84
2023/08/18 09:48:59;;;;;;;5.13;2.70;;;;;;;36.70;31.69;98845.72;4826317;29;20192;-84
2023/08/18 09:51:25;;;;;;;6.93;2.45;;;;;;;37.16;30.11;98846.22;4842248;29;20209;-84
2023/08/18 09:53:59;;;;;;;3.55;2.58;;;;;;;37.31;29.80;98840.88;4842244;29;20213;-84
2023/08/18 09:56:30;;;;;;;3.45;1.92;;;;;;;37.18;29.81;98830.38;4835585;29;20555;-84
2023/08/18 09:59:30;;;;;;;11.15;2.88;;;;;;;37.34;29.69;98829.44;4837306;29;20189;-86
2023/08/18 10:01:58;;;;;;;17.25;4.07;;;;;;;37.18;29.68;98825.75;4820183;29;20208;-84
2023/08/18 10:04:25;;;;;;;6.28;2.80;;;;;;;37.54;28.96;98830.44;4842203;29;20289;-84
2023/08/18 10:06:53;;;;;;;6.88;2.58;;;;;;;37.10;30.07;98830.84;4825891;29;20670;-84
2023/08/18 10:09:21;;;;;;;3.58;1.90;;;;;;;37.26;29.54;98822.53;4824109;29;20185;-83
2023/08/18 10:11:46;;;;;;;6.80;1.85;;;;;;;37.94;28.45;98824.47;4815469;29;20521;-84
2023/08/18 10:14:13;;;;;;;2.83;1.75;;;;;;;38.41;27.69;98823.63;4826033;29;20227;-84
2023/08/18 10:16:39;;;;;;;10.77;2.38;;;;;;;38.12;26.95;98829.50;4841710;29;20272;-83
2023/08/18 10:19:04;;;;;;;4.65;2.33;;;;;;;37.82;28.04;98832.00;4820822;29;20289;-83
2023/08/18 10:21:31;;;;;;;3.55;1.60;;;;;;;38.28;27.86;98822.19;4829434;29;20570;-83
2023/08/18 10:23:57;;;;;;;5.85;1.80;;;;;;;38.38;26.07;98811.28;4841689;29;20201;-83
2023/08/18 10:26:24;;;;;;;5.20;1.92;;;;;;;38.53;25.31;98818.72;4841416;29;20225;-83
2023/08/18 10:28:51;;;;;;;8.65;2.40;;;;;;;38.92;25.38;98816.38;4840749;29;20284;-84
2023/08/18 10:31:16;;;;;;;4.88;1.90;;;;;;;38.95;25.82;98813.09;4841909;29;20189;-84
2023/08/18 10:33:49;;;;;;;3.80;1.98;;;;;;;39.08;25.54;98818.91;4840409;29;20224;-83
2023/08/18 10:36:26;;;;;;;4.75;2.30;;;;;;;39.21;24.94;98823.88;4825276;29;20219;-83
2023/08/18 10:38:54;;;;;;;3.17;1.40;;;;;;;39.29;24.81;98814.28;4841773;29;20260;-83
2023/08/18 10:41:28;;;;;;;5.82;1.50;;;;;;;39.32;24.32;98808.25;4841794;29;20193;-83
2023/08/18 10:43:58;;;;;;;6.38;1.48;;;;;;;39.14;24.48;98808.75;4840781;29;20187;-83
2023/08/18 10:46:32;;;;;;;8.45;2.08;;;;;;;38.37;24.38;98815.09;4823941;29;20192;-82
2023/08/18 10:48:58;;;;;;;2.80;1.50;;;;;;;38.24;23.63;98815.56;4842415;29;20225;-82
2023/08/18 10:51:24;;;;;;;3.85;1.40;;;;;;;38.08;24.64;98811.94;4832102;29;20254;-83
2023/08/18 10:53:50;;;;;;;4.18;1.48;;;;;;;38.54;23.14;98807.53;4824545;29;20212;-83
2023/08/18 10:56:16;;;;;;;3.80;1.52;;;;;;;38.76;22.84;98801.84;4845096;29;20589;-83
2023/08/18 10:58:41;;;;;;;2.17;1.40;;;;;;;39.15;22.83;98802.97;4845192;29;20221;-83
2023/08/18 11:01:09;;;;;;;3.50;1.40;;;;;;;39.25;23.54;98803.03;4851873;29;20208;-83
2023/08/18 11:03:35;;;;;;;3.05;1.30;;;;;;;39.39;22.79;98805.25;4841561;29;20572;-84
2023/08/18 11:06:02;;;;;;;6.55;1.42;;;;;;;39.51;22.91;98800.28;4833329;29;20197;-83
2023/08/18 11:08:29;;;;;;;5.10;1.75;;;;;;;39.34;22.28;98803.28;4843642;29;20588;-83
2023/08/18 11:10:55;;;;;;;2.53;1.20;;;;;;;39.00;22.51;98794.75;4843994;29;20663;-83
2023/08/18 11:13:24;;;;;;;5.00;1.40;;;;;;;38.91;22.61;98796.41;4843730;29;20209;-82
2023/08/18 11:15:52;;;;;;;2.70;1.02;;;;;;;38.99;22.24;98786.81;4842594;29;20518;-83
2023/08/18 11:18:20;;;;;;;2.42;1.20;;;;;;;39.66;21.83;98784.66;4842334;29;20199;-86
2023/08/18 11:20:51;;;;;;;3.55;1.20;;;;;;;39.10;22.32;98783.78;4828626;29;20249;-83
2023/08/18 11:23:19;;;;;;;6.03;1.63;;;;;;;39.38;21.96;98784.38;4844964;29;20182;-83
2023/08/18 11:25:46;;;;;;;2.63;1.40;;;;;;;39.19;21.34;98784.94;4844803;29;20197;-84
2023/08/18 11:28:14;;;;;;;3.75;1.10;;;;;;;39.71;20.34;98783.81;4844727;29;20197;-84
2023/08/18 11:30:40;;;;;;;6.97;1.33;;;;;;;40.02;20.18;98779.88;4844830;29;20189;-83
2023/08/18 11:33:07;;;;;;;2.85;1.20;;;;;;;39.49;21.05;98781.38;4844553;29;20217;-83